全部
Dahlemer Binz Airport (Dahlem) EDKV 天氣
There is no TAF data available at EDKV or any nearby airports.
There is no METAR data available at EDKV. Showing METAR data for ETSB (29 mi SE).
ETSB近期METAR歷史資料(EDKV無資料)
| Date | Time (CEST) | Flight Rules | Wind Dir. | Speed | Type | Height AGL (ft) | Visibility | Temp (°C) | Temp (°F) | Dew Point (°C) | Dew Point (°F) | Rel. Humid. | Pressure | Density Altitude | Remarks |
|---|---|---|---|---|---|---|---|---|---|---|---|---|---|---|---|
| 03-五月 | 03:20 | n/a | 230° | 7 kt | Missing | 15° | 59° | 2° | 35° | 41% | 1014 mb | 1,782 ft | |||
| 03-五月 | 02:20 | n/a | 250° | 3 kt | Missing | 15° | 59° | 3° | 37° | 44% | 1015 mb | 1,753 ft | |||
| 03-五月 | 01:20 | n/a | 230° | 7 kt | Missing | 16° | 60° | 2° | 35° | 39% | 1015 mb | 1,873 ft | |||
| 03-五月 | 00:20 | n/a | 210° | 7 kt | Missing | 15° | 59° | 3° | 37° | 44% | 1015 mb | 1,753 ft | |||
| 02-五月 | 23:20 | n/a | 220° | 6 kt | Missing | 17° | 62° | 3° | 37° | 39% | 1015 mb | 1,993 ft | |||
| 02-五月 | 22:20 | n/a | 210° | 6 kt | Missing | 18° | 64° | 3° | 37° | 37% | 1016 mb | 2,083 ft | |||
| 02-五月 | 21:20 | n/a | 200° | 5 kt | Missing | 19° | 66° | 3° | 37° | 34% | 1016 mb | 2,203 ft | |||
| 02-五月 | 20:20 | n/a | 210° | 7 kt | Missing | 20° | 68° | 4° | 39° | 35% | 1016 mb | 2,323 ft | |||
| 02-五月 | 19:20 | n/a | 190° | 8 kt | Missing | 21° | 69° | 9° | 48° | 46% | 1015 mb | 2,473 ft | |||
| 02-五月 | 18:20 | n/a | 200° | 10 kt | Missing | 23° | 73° | 9° | 48° | 41% | 1016 mb | 2,683 ft | |||
| 02-五月 | 17:20 | n/a | 200° | 9 kt | Missing | 22° | 71° | 10° | 50° | 46% | 1017 mb | 2,534 ft | |||
| 02-五月 | 16:20 | n/a | 210° | 10 kt | Missing | 23° | 73° | 10° | 50° | 44% | 1017 mb | 2,654 ft | |||
| 02-五月 | 15:20 | n/a | 210° | 12 kt | Missing | 23° | 73° | 9° | 48° | 41% | 1018 mb | 2,624 ft | |||
| 02-五月 | 14:20 | n/a | 170° | 11 kt | Missing | 23° | 73° | 7° | 44° | 36% | 1019 mb | 2,595 ft | |||
| 02-五月 | 13:20 | n/a | 220° | 8 kt | Missing | 22° | 71° | 7° | 44° | 38% | 1019 mb | 2,475 ft | |||
| 02-五月 | 12:20 | n/a | 180° | 8 kt | Missing | 22° | 71° | 8° | 46° | 41% | 1020 mb | 2,445 ft | |||
| 02-五月 | 11:20 | n/a | 200° | 6 kt | Missing | 20° | 68° | 6° | 42° | 40% | 1020 mb | 2,205 ft | |||
| 02-五月 | 10:20 | n/a | 200° | 7 kt | Missing | 18° | 64° | 4° | 39° | 39% | 1021 mb | 1,935 ft | |||
| 02-五月 | 09:20 | n/a | 230° | 4 kt | Missing | 16° | 60° | 4° | 39° | 45% | 1021 mb | 1,695 ft | |||
| 02-五月 | 08:20 | n/a | Variable | 3 kt | Missing | 15° | 59° | 3° | 37° | 44% | 1021 mb | 1,575 ft | |||
| 02-五月 | 07:20 | n/a | 180° | 2 kt | Missing | 13° | 55° | 2° | 35° | 47% | 1021 mb | 1,335 ft | |||
| 02-五月 | 06:20 | n/a | 120° | 3 kt | Missing | 12° | 53° | 1° | 33° | 47% | 1021 mb | 1,215 ft | |||
| 02-五月 | 05:20 | n/a | 160° | 2 kt | Missing | 12° | 53° | 1° | 33° | 47% | 1021 mb | 1,215 ft | |||
| 02-五月 | 04:20 | n/a | 170° | 4 kt | Missing | 13° | 55° | 1° | 33° | 44% | 1021 mb | 1,335 ft |
登入
| 您的瀏覽器不支援. 升級您的瀏覽器 |
